Impacts TAF Board
For situational awareness. Not to be used for flight planning purposes.
IDs:

KHOU - Houston/Hobby Arpt, TX, US

Issued at 0528 UTC 01 Dec 2022
Updated at 0617 UTC 01 Dec 2022
Potential Impact None Slight Moderate High
Time0553Z 01/07Z 01/08Z 01/09Z 01/10Z 01/11Z 01/12Z 01/13Z 01/14Z 01/15Z 01/16Z 01/17Z 01/18Z 01/19Z>>
Type OBS PRVL PRVL PRVL PRVL PRVL PRVL PRVL PRVL PRVL PRVL PRVL PRVL PRVL
VIS 10 >6 >6 >6 >6 >6 >6 >6 >6 >6 >6 >6 >6 >6
CIG -- -- -- -- -- -- -- -- -- -- -- -- -- --
Cover FEW SKC SKC SKC SKC SKC SKC SKC SKC SKC SCT SCT SCT SCT
FltCat VFR VFR VFR VFR VFR VFR VFR VFR VFR VFR VFR VFR VFR VFR
WX -- -- -- -- -- -- -- -- -- -- -- -- -- --
WDir 60 50 50 50 50 50 50 50 50 50 100 100 100 100
WSpd 10 15 6 6 6 6 6 6 6 6 8 8 8 8
WGst -- -- -- -- -- -- -- -- -- -- -- -- -- --
WSHgt -- -- -- -- -- -- -- -- -- -- -- -- -- --
WSDir -- -- -- -- -- -- -- -- -- -- -- -- -- --
WSSpd -- -- -- -- -- -- -- -- -- -- -- -- -- --
R04/22
XWnd -3 -2 -1 -1 -1 -1 -1 -1 -1 -1 -7 -7 -7 -7
HWnd 10 15 6 6 6 6 6 6 6 6 4 4 4 4
R13/31
XWnd 10 15 6 6 6 6 6 6 6 6 4 4 4 4
HWnd 3 2 1 1 1 1 1 1 1 1 7 7 7 7
Raw TAF
KHOU 010528Z 0106/0206 05015KT P6SM SKC
  FM010800 05006KT P6SM SKC
  FM011600 10008KT P6SM SCT030
  FM020200 09006KT P6SM BKN035


Raw METAR
KHOU 010553Z 06010KT 10SM FEW250 10/M01 A3033 RMK AO2 SLP276 T01001006 10150 20100 402390100 56005
KHOU 010453Z 05013KT 10SM CLR 11/00 A3034 RMK AO2 SLP277 T01060000
KHOU 010353Z 05015KT 10SM CLR 12/00 A3034 RMK AO2 SLP278 T01170000

METAR Board
Radar Display
Forecast Discussion
For situational awareness. Not to be used for flight planning purposes.